Time;durP1;ratioP1;P1;durP2;ratioP2;P2;SDS_P1;SDS_P2;PMS_P1;PMS_P2;Temp;Humidity;BMP_temperature;BMP_pressure;BME280_temperature;BME280_humidity;BME280_pressure;Samples;Min_cycle;Max_cycle;Signal;HPM_P1;HPM_P2
2022/09/29 00:01:05;;;;;;;;;3.00;1.33;;;;;24.30;43.86;100182.13;146622;636;46020;-72
2022/09/29 00:03:57;;;;;;;;;1.00;0.33;;;;;24.26;43.79;100182.19;146616;588;46016;-70
2022/09/29 00:06:50;;;;;;;;;1.25;1.25;;;;;24.13;43.87;100179.69;146622;565;46010;-70
2022/09/29 00:09:45;;;;;;;;;3.75;2.75;;;;;24.03;43.89;100178.06;146620;726;46016;-69
2022/09/29 00:12:43;;;;;;;;;1.33;1.33;;;;;23.97;44.20;100191.38;146623;592;46010;-74
2022/09/29 00:15:44;;;;;;;;;2.25;1.75;;;;;23.92;43.70;100195.84;146617;611;46016;-73
2022/09/29 00:18:38;;;;;;;;;2.00;1.00;;;;;23.88;44.29;100195.00;146623;614;46010;-74
2022/09/29 00:21:35;;;;;;;;;1.00;1.00;;;;;23.90;43.73;100192.34;146618;665;46016;-74
2022/09/29 00:24:30;;;;;;;;;2.75;1.00;;;;;23.95;43.79;100191.38;146621;618;46010;-73
2022/09/29 00:27:42;;;;;;;;;;;;;;;;;;;;;
2022/09/29 00:30:40;;;;;;;;;0.00;0.00;;;;;24.06;43.22;100198.34;146622;566;46020;-73
2022/09/29 00:33:38;;;;;;;;;0.00;0.00;;;;;24.09;43.57;100183.28;146617;569;46016;-74
2022/09/29 00:36:40;;;;;;;;;1.25;1.25;;;;;24.13;43.44;100195.59;146619;592;46020;-73
2022/09/29 00:39:46;;;;;;;;;0.67;0.67;;;;;24.15;43.26;100182.34;146619;571;46012;-74
2022/09/29 00:42:43;;;;;;;;;1.00;1.00;;;;;24.14;43.31;100180.56;146620;577;46021;-73
2022/09/29 00:45:43;;;;;;;;;3.00;2.00;;;;;24.15;43.16;100177.03;146621;605;46012;-73
2022/09/29 00:48:47;;;;;;;;;2.00;1.00;;;;;24.10;42.78;100160.31;146622;712;46010;-73
2022/09/29 00:51:48;;;;;;;;;2.00;2.00;;;;;24.07;43.19;100168.31;146619;564;46917;-74
2022/09/29 00:54:54;;;;;;;;;3.00;3.00;;;;;24.03;43.72;100166.59;146621;572;46010;-74
2022/09/29 00:58:21;;;;;;;;;1.00;1.00;;;;;22.24;42.68;99868.84;146621;603;46014;-73
2022/09/29 01:01:28;;;;;;;;;2.33;2.00;;;;;23.97;43.77;100165.78;146621;676;46020;-74
2022/09/29 01:04:33;;;;;;;;;1.75;1.75;;;;;23.90;43.86;100160.59;146619;570;46012;-73
2022/09/29 01:07:32;;;;;;;;;3.67;2.33;;;;;23.92;44.13;100170.25;146622;636;46021;-73
2022/09/29 01:10:33;;;;;;;;;1.00;1.00;;;;;23.89;44.04;100180.88;146616;575;46917;-73
2022/09/29 01:13:37;;;;;;;;;2.00;2.00;;;;;23.85;43.92;100173.88;146620;624;46022;-73
2022/09/29 01:16:29;;;;;;;;;2.00;2.00;;;;;23.82;44.07;100167.72;146618;589;46030;-74
2022/09/29 01:19:42;;;;;;;;;3.00;3.00;;;;;23.82;43.59;100165.97;146621;693;46010;-73
2022/09/29 01:23:21;;;;;;;;;1.50;1.50;;;;;23.75;43.26;100153.69;146619;617;46016;-74
2022/09/29 01:26:49;;;;;;;;;3.00;2.00;;;;;23.68;43.33;100155.50;146620;625;46020;-73
2022/09/29 01:30:18;;;;;;;;;2.00;2.00;;;;;23.61;43.56;100152.94;146621;569;46012;-72
2022/09/29 01:33:57;;;;;;;;;5.00;3.33;;;;;23.52;43.64;100157.47;146626;635;46008;-72
2022/09/29 01:37:28;;;;;;;;;3.67;2.00;;;;;23.46;43.55;100146.94;146620;576;46012;-72
2022/09/29 01:40:56;;;;;;;;;2.00;2.00;;;;;23.41;43.60;100154.03;146624;588;46010;-73
2022/09/29 01:44:07;;;;;;;;;2.00;2.00;;;;;23.42;44.04;100142.53;146618;570;46012;-73
2022/09/29 01:47:38;;;;;;;;;3.00;3.00;;;;;23.43;43.98;100141.69;146619;574;46020;-72
2022/09/29 01:50:52;;;;;;;;;2.00;2.00;;;;;23.42;44.29;100139.91;146618;628;46915;-74
2022/09/29 01:53:54;;;;;;;;;2.00;1.33;;;;;23.40;44.04;100143.47;146622;589;46010;-72
2022/09/29 01:57:13;;;;;;;;;2.00;2.00;;;;;21.71;43.91;99848.16;146619;564;46917;-71
2022/09/29 02:00:30;;;;;;;;;2.50;1.50;;;;;23.33;43.81;100147.06;146621;620;46020;-71
2022/09/29 02:03:44;;;;;;;;;3.67;1.00;;;;;23.36;43.74;100152.31;146616;581;46016;-72
2022/09/29 02:07:12;;;;;;;;;1.67;0.67;;;;;23.37;43.98;100136.44;146618;578;46021;-71
2022/09/29 02:10:29;;;;;;;;;2.33;2.00;;;;;23.42;43.97;100146.97;146621;596;46012;-71
2022/09/29 02:13:36;;;;;;;;;1.00;1.00;;;;;23.46;44.05;100139.00;146620;572;46023;-70
2022/09/29 02:16:35;;;;;;;;;2.33;1.00;;;;;23.51;44.09;100145.09;146621;581;46012;-71
2022/09/29 02:20:04;;;;;;;;;2.25;2.00;;;;;23.56;44.10;100147.72;146619;597;46012;-72
2022/09/29 02:23:02;;;;;;;;;2.25;2.25;;;;;23.57;44.54;100152.09;146618;632;46012;-71
2022/09/29 02:26:24;;;;;;;;;1.75;1.75;;;;;23.55;43.67;100163.59;146620;596;46020;-71
2022/09/29 02:29:17;;;;;;;;;1.00;1.00;;;;;23.49;44.05;100162.78;146620;569;46914;-70
2022/09/29 02:32:20;;;;;;;;;3.00;2.00;;;;;23.51;44.16;100168.03;146621;573;46020;-71
2022/09/29 02:35:21;;;;;;;;;2.00;2.00;;;;;23.52;43.95;100154.81;146619;585;46025;-71
2022/09/29 02:38:44;;;;;;;;;1.00;1.00;;;;;23.57;43.21;100170.62;146621;576;46012;-70
2022/09/29 02:42:10;;;;;;;;;1.75;1.00;;;;;23.61;43.46;100168.81;146618;648;46016;-70
2022/09/29 02:45:39;;;;;;;;;2.67;2.67;;;;;21.94;42.82;99892.88;146631;594;46020;-70
2022/09/29 02:49:10;;;;;;;;;3.00;3.00;;;;;23.67;42.58;100187.28;146634;691;45016;-70
2022/09/29 02:52:48;;;;;;;;;2.00;2.00;;;;;21.88;41.84;99862.97;146637;620;45012;-70
2022/09/29 02:56:13;;;;;;;;;2.00;2.00;;;;;23.87;41.71;100182.69;146636;709;46013;-70
2022/09/29 02:59:16;;;;;;;;;4.50;2.25;;;;;23.92;42.29;100191.41;146630;672;45012;-70
2022/09/29 03:02:11;;;;;;;;;2.33;2.33;;;;;23.95;42.39;100183.44;146635;695;45016;-71
2022/09/29 03:05:15;;;;;;;;;2.00;2.00;;;;;23.96;42.08;100190.50;146638;615;45020;-70
2022/09/29 03:08:10;;;;;;;;;1.33;1.00;;;;;23.95;42.33;100180.78;146636;648;45016;-70
2022/09/29 03:11:24;;;;;;;;;;;;;;;;;;;;;
2022/09/29 03:14:19;;;;;;;;;3.00;1.33;;;;;23.93;42.45;100172.00;146636;609;45018;-70
2022/09/29 03:17:29;;;;;;;;;;;;;;;;;;;;;
2022/09/29 03:20:46;;;;;;;;;2.50;1.50;;;;;23.93;42.45;100187.03;146634;669;45016;-68
2022/09/29 03:23:57;;;;;;;;;1.67;1.67;;;;;23.90;42.77;100187.94;146634;577;45010;-69
2022/09/29 03:26:52;;;;;;;;;4.50;1.75;;;;;23.83;42.70;100178.31;146636;610;45016;-71
2022/09/29 03:29:49;;;;;;;;;1.00;1.00;;;;;23.79;42.39;100179.22;146636;603;45020;-70
2022/09/29 03:32:57;;;;;;;;;2.00;2.00;;;;;23.77;42.67;100180.13;146636;584;45012;-68
2022/09/29 03:35:55;;;;;;;;;3.25;3.00;;;;;23.68;42.82;100183.75;146634;563;45021;-70
2022/09/29 03:38:48;;;;;;;;;1.50;1.50;;;;;23.65;42.93;100178.50;146633;596;45014;-71
2022/09/29 03:41:44;;;;;;;;;1.00;1.00;;;;;23.60;42.56;100162.66;146636;584;45010;-69
2022/09/29 03:44:46;;;;;;;;;;;;;;;;;;;;;
2022/09/29 03:47:43;;;;;;;;;3.25;3.25;;;;;23.64;42.41;100188.19;146637;703;45020;-70
2022/09/29 03:50:46;;;;;;;;;4.00;3.00;;;;;23.66;42.81;100178.47;146631;661;45919;-70
2022/09/29 03:53:40;;;;;;;;;1.75;1.75;;;;;23.69;42.33;100172.28;146627;589;45020;-70
2022/09/29 03:56:32;;;;;;;;;1.50;1.25;;;;;23.68;42.39;100175.81;146632;723;45919;-70
2022/09/29 03:59:27;;;;;;;;;4.00;2.50;;;;;23.70;42.75;100196.09;146636;569;46010;-68
2022/09/29 04:02:32;;;;;;;;;2.25;2.00;;;;;23.67;42.56;100185.50;146632;574;45868;-68
2022/09/29 04:05:37;;;;;;;;;2.25;2.00;;;;;23.64;42.40;100203.19;146635;581;45021;-69
2022/09/29 04:08:48;;;;;;;;;;;;;;;;;;;;;
2022/09/29 04:11:55;;;;;;;;;3.00;3.00;;;;;23.60;42.70;100198.84;146635;602;45021;-69
2022/09/29 04:14:53;;;;;;;;;2.00;2.00;;;;;23.60;42.57;100207.63;146634;563;45919;-69
2022/09/29 04:17:46;;;;;;;;;2.00;2.00;;;;;23.56;42.92;100211.22;146636;643;45011;-68
2022/09/29 04:20:45;;;;;;;;;3.75;3.75;;;;;23.51;43.01;100202.44;146627;669;45947;-70
2022/09/29 04:24:00;;;;;;;;;4.25;3.25;;;;;21.74;43.21;99927.31;146631;663;45020;-69
2022/09/29 04:27:00;;;;;;;;;3.50;3.25;;;;;23.42;43.34;100229.84;146636;565;45016;-69
2022/09/29 04:30:08;;;;;;;;;3.00;3.00;;;;;21.66;43.18;99936.16;146636;637;45020;-70
2022/09/29 04:33:02;;;;;;;;;2.00;2.00;;;;;23.36;43.42;100240.50;146632;566;46919;-71
2022/09/29 04:35:59;;;;;;;;;8.00;8.00;;;;;23.37;43.39;100244.91;146637;575;45010;-70
2022/09/29 04:39:00;;;;;;;;;5.75;5.25;;;;;23.38;43.28;100233.44;146632;592;46917;-70
2022/09/29 04:41:58;;;;;;;;;4.00;4.00;;;;;23.43;43.04;100223.69;146636;586;45010;-71
2022/09/29 04:45:05;;;;;;;;;3.00;2.00;;;;;23.45;42.83;100223.66;146617;645;46014;-70
2022/09/29 04:48:00;;;;;;;;;2.00;2.00;;;;;23.48;43.32;100226.28;146623;600;47010;-70
2022/09/29 04:50:57;;;;;;;;;3.25;3.00;;;;;23.54;43.13;100225.34;146615;581;46016;-70
2022/09/29 04:53:52;;;;;;;;;2.75;2.75;;;;;23.56;43.59;100227.09;146618;669;46012;-70
2022/09/29 04:56:48;;;;;;;;;3.75;3.50;;;;;23.77;43.75;100227.78;146613;604;47012;-71
2022/09/29 04:59:55;;;;;;;;;4.75;2.75;;;;;24.42;42.71;100231.44;146621;681;46020;-70
2022/09/29 05:02:59;;;;;;;;;3.50;3.50;;;;;23.72;41.54;99945.50;146618;656;46014;-72
2022/09/29 05:06:02;;;;;;;;;3.00;3.00;;;;;26.40;40.26;100225.41;146622;677;46020;-71
2022/09/29 05:09:08;;;;;;;;;15.50;10.00;;;;;27.35;38.76;100242.75;146616;625;46017;-70
2022/09/29 05:12:15;;;;;;;;;7.25;5.75;;;;;28.31;37.02;100241.00;146619;564;46010;-71
2022/09/29 05:15:17;;;;;;;;;8.50;5.50;;;;;29.09;36.12;100246.66;146618;665;46016;-68
2022/09/29 05:18:10;;;;;;;;;4.00;2.75;;;;;29.78;34.96;100257.69;146620;612;46021;-67
2022/09/29 05:21:24;;;;;;;;;3.00;3.00;;;;;30.27;34.78;100266.63;146617;640;46016;-68
2022/09/29 05:24:25;;;;;;;;;7.25;4.00;;;;;30.72;34.80;100273.84;146619;596;46020;-69
2022/09/29 05:27:29;;;;;;;;;7.50;5.25;;;;;31.02;34.59;100270.87;146618;565;46016;-73
2022/09/29 05:30:41;;;;;;;;;4.50;3.00;;;;;31.26;34.64;100271.69;146621;664;46020;-68
2022/09/29 05:33:36;;;;;;;;;5.50;5.00;;;;;31.41;33.53;100268.41;146617;573;46017;-68
2022/09/29 05:36:30;;;;;;;;;4.75;4.75;;;;;31.36;33.35;100265.03;146622;597;46012;-69
2022/09/29 05:39:47;;;;;;;;;5.25;4.25;;;;;30.43;34.00;100156.38;146616;695;46016;-69
2022/09/29 05:42:43;;;;;;;;;7.50;5.25;;;;;30.68;34.18;100261.47;146620;684;46010;-69
2022/09/29 05:45:46;;;;;;;;;6.00;6.00;;;;;30.31;34.06;100256.69;146615;669;47015;-69
2022/09/29 05:48:44;;;;;;;;;5.25;4.50;;;;;29.87;34.55;100265.38;146618;577;47021;-70
2022/09/29 05:51:36;;;;;;;;;6.00;6.00;;;;;29.55;35.06;100261.13;146618;635;47012;-69
2022/09/29 05:54:40;;;;;;;;;2.75;2.75;;;;;29.37;35.43;100267.97;146621;621;46021;-69
2022/09/29 05:57:44;;;;;;;;;4.25;4.00;;;;;29.26;35.03;100275.47;146620;728;46012;-68
2022/09/29 06:00:43;;;;;;;;;4.00;4.00;;;;;29.11;35.59;100270.63;146711;564;46014;-71
2022/09/29 06:03:37;;;;;;;;;3.00;3.00;;;;;29.06;35.88;100272.56;146624;571;46016;-69
2022/09/29 06:06:35;;;;;;;;;1.00;1.00;;;;;29.06;35.34;100281.44;146629;618;46020;-72
2022/09/29 06:09:27;;;;;;;;;7.00;6.00;;;;;29.08;35.12;100268.94;146626;589;46026;-72
2022/09/29 06:12:22;;;;;;;;;5.50;3.75;;;;;29.04;35.46;100279.78;146629;639;46020;-73
2022/09/29 06:15:26;;;;;;;;;6.75;6.00;;;;;28.99;36.23;100285.22;146628;571;46012;-72
2022/09/29 06:18:24;;;;;;;;;5.50;5.25;;;;;28.96;35.21;100287.97;146629;662;46012;-71
2022/09/29 06:21:40;;;;;;;;;2.75;2.50;;;;;28.95;36.58;100289.78;146625;656;46012;-72
2022/09/29 06:24:38;;;;;;;;;1.50;1.00;;;;;28.99;35.62;100306.56;146626;600;46021;-72
2022/09/29 06:27:30;;;;;;;;;2.00;1.00;;;;;28.86;35.86;100305.22;146626;578;46012;-72
2022/09/29 06:30:25;;;;;;;;;2.50;1.75;;;;;28.67;35.16;100312.91;146628;564;46021;-73
2022/09/29 06:33:19;;;;;;;;;3.25;3.25;;;;;28.44;35.94;100313.56;146622;660;46029;-72
2022/09/29 06:39:42;;;;;;;;;6.00;5.25;;;;;27.97;36.82;100319.25;146622;611;46012;-72
2022/09/29 06:42:39;;;;;;;;;3.00;2.00;;;;;27.82;37.62;100320.56;146628;629;46020;-72
2022/09/29 06:45:43;;;;;;;;;2.00;2.00;;;;;27.70;37.71;100323.50;146625;590;46016;-73
2022/09/29 06:48:40;;;;;;;;;2.00;2.00;;;;;27.59;37.93;100330.91;146631;590;46010;-73
2022/09/29 06:51:42;;;;;;;;;1.33;1.33;;;;;27.53;37.60;100320.38;146626;570;46015;-73
2022/09/29 06:54:36;;;;;;;;;2.50;2.50;;;;;27.50;38.03;100316.00;146631;678;46010;-73
2022/09/29 06:57:48;;;;;;;;;;;;;;;;;;;;;
2022/09/29 07:00:44;;;;;;;;;3.00;2.00;;;;;27.56;38.00;100323.84;146643;654;45021;-73
2022/09/29 07:03:44;;;;;;;;;1.00;1.00;;;;;27.59;37.32;100330.91;146640;656;45033;-74
2022/09/29 07:06:39;;;;;;;;;2.25;2.25;;;;;27.57;37.79;100335.37;146642;564;45020;-72
2022/09/29 07:09:34;;;;;;;;;2.25;1.25;;;;;27.53;37.93;100339.03;146641;697;45012;-74
2022/09/29 07:12:42;;;;;;;;;;;;;;;;;;;;;
2022/09/29 07:15:47;;;;;;;;;2.00;1.67;;;;;27.44;37.67;100350.78;146644;571;45012;-74
2022/09/29 07:18:52;;;;;;;;;4.00;3.00;;;;;27.42;38.04;100359.75;146640;663;45020;-73
2022/09/29 07:21:53;;;;;;;;;3.00;1.00;;;;;27.36;38.19;100355.44;146637;601;45016;-73
2022/09/29 07:24:52;;;;;;;;;3.00;2.67;;;;;27.22;39.19;100357.53;146642;595;45020;-74
2022/09/29 07:27:45;;;;;;;;;4.00;2.00;;;;;27.11;39.43;100355.09;146637;569;46012;-74
2022/09/29 07:30:44;;;;;;;;;1.00;1.00;;;;;27.00;38.91;100355.31;146642;564;45021;-74
2022/09/29 07:33:38;;;;;;;;;1.00;1.00;;;;;26.93;38.32;100356.38;146636;570;45918;-74
2022/09/29 07:36:45;;;;;;;;;1.33;1.00;;;;;26.91;38.70;100359.03;146644;585;45020;-73
2022/09/29 07:39:40;;;;;;;;;2.00;2.00;;;;;26.91;38.81;100348.41;146642;599;45016;-73
2022/09/29 07:42:35;;;;;;;;;10.50;10.50;;;;;26.97;38.78;100350.06;146642;605;46013;-72
2022/09/29 07:45:41;;;;;;;;;3.00;2.00;;;;;27.02;38.79;100352.63;146635;668;45917;-73
2022/09/29 07:48:52;;;;;;;;;3.50;2.00;;;;;27.14;38.60;100347.06;146646;625;45010;-74
2022/09/29 07:51:53;;;;;;;;;5.00;2.00;;;;;27.31;37.73;100350.19;146639;569;45017;-73
2022/09/29 07:55:04;;;;;;;;;;;;;;;;;;;;;
2022/09/29 07:58:00;;;;;;;;;2.50;2.50;;;;;28.06;41.53;100367.00;146644;658;45012;-75
2022/09/29 08:01:22;;;;;;;;;2.25;2.25;;;;;28.13;41.82;100364.16;146644;592;45010;-74
2022/09/29 08:04:16;;;;;;;;;1.00;1.00;;;;;28.13;42.22;100353.50;146642;655;45016;-74
2022/09/29 08:07:14;;;;;;;;;3.25;2.25;;;;;28.16;41.86;100348.09;146641;692;45021;-74
2022/09/29 08:10:10;;;;;;;;;2.00;1.33;;;;;28.45;41.51;100344.66;146639;636;45016;-73
2022/09/29 08:13:06;;;;;;;;;0.67;0.67;;;;;28.78;40.53;100343.69;146647;598;45010;-74
2022/09/29 08:16:02;;;;;;;;;1.00;1.00;;;;;28.91;39.68;100328.16;146640;598;45016;-73
2022/09/29 08:19:07;;;;;;;;;2.00;1.33;;;;;29.06;39.64;100328.63;146647;621;45010;-73
2022/09/29 08:22:05;;;;;;;;;0.33;0.33;;;;;29.29;38.38;100318.09;146642;578;45012;-73
2022/09/29 08:24:58;;;;;;;;;1.00;1.00;;;;;29.63;37.71;100317.03;146643;581;45031;-73
2022/09/29 08:27:51;;;;;;;;;2.67;1.67;;;;;30.02;38.01;100327.25;146642;574;45016;-73
2022/09/29 08:30:57;;;;;;;;;3.00;2.00;;;;;30.37;37.20;100332.25;146641;607;45021;-72
2022/09/29 08:34:04;;;;;;;;;2.00;1.67;;;;;30.56;37.02;100337.78;146644;611;46012;-74
2022/09/29 08:37:17;;;;;;;;;2.25;2.00;;;;;30.54;37.22;100325.37;146645;584;45030;-73
2022/09/29 08:40:21;;;;;;;;;1.33;1.33;;;;;30.53;36.64;100340.56;146640;607;46012;-76
2022/09/29 08:43:34;;;;;;;;;3.00;2.00;;;;;30.40;36.89;100335.72;146642;565;45021;-74
2022/09/29 08:47:09;;;;;;;;;2.00;2.00;;;;;30.49;36.98;100344.25;146637;617;45016;-73
2022/09/29 08:50:59;;;;;;;;;;;;;;;;;;;;;
2022/09/29 08:53:56;;;;;;;;;2.00;2.00;;;;;30.68;38.02;100348.94;146640;629;45016;-74
2022/09/29 08:56:48;;;;;;;;;2.00;2.00;;;;;30.33;37.78;100343.97;146643;651;45012;-72
2022/09/29 09:00:23;;;;;;;;;;;;;;;;;;;;;
2022/09/29 09:04:14;;;;;;;;;2.00;1.00;;;;;28.45;40.89;100222.00;146622;569;46020;-71
2022/09/29 09:07:44;;;;;;;;;1.00;1.00;;;;;28.72;40.48;100340.28;146617;602;46016;-71
2022/09/29 09:11:15;;;;;;;;;1.00;1.00;;;;;27.77;40.75;100196.34;146624;571;46010;-72
2022/09/29 09:14:44;;;;;;;;;2.00;2.00;;;;;28.66;41.71;100337.81;146619;644;46017;-73
2022/09/29 09:18:35;;;;;;;;;2.00;1.75;;;;;27.99;41.27;100200.19;146620;571;46020;-70
2022/09/29 09:21:54;;;;;;;;;3.00;1.00;;;;;28.87;40.05;100333.62;146617;609;46017;-73
2022/09/29 09:25:44;;;;;;;;;1.67;1.67;;;;;28.98;39.91;100329.72;146625;582;46010;-70
2022/09/29 09:29:00;;;;;;;;;1.00;1.00;;;;;28.96;39.61;100328.87;146618;582;47036;-71
2022/09/29 09:32:18;;;;;;;;;2.00;2.00;;;;;28.88;39.82;100325.59;146626;595;46010;-73
2022/09/29 09:35:50;;;;;;;;;1.00;1.00;;;;;28.94;39.92;100325.41;146621;570;46012;-72
2022/09/29 09:39:13;;;;;;;;;2.33;1.33;;;;;28.38;39.02;100199.94;146623;570;46020;-71
2022/09/29 09:42:21;;;;;;;;;4.50;3.00;;;;;29.11;39.44;100330.25;146617;696;47017;-72
2022/09/29 09:45:58;;;;;;;;;2.67;1.33;;;;;29.09;37.67;100341.87;146624;595;46033;-73
2022/09/29 09:49:24;;;;;;;;;1.33;0.67;;;;;29.02;40.17;100337.66;146617;585;46037;-74
2022/09/29 09:52:39;;;;;;;;;4.00;1.00;;;;;28.98;37.94;100329.72;146624;628;46020;-70
2022/09/29 09:55:36;;;;;;;;;1.67;1.67;;;;;28.92;38.86;100339.72;146622;587;46012;-70
2022/09/29 09:59:13;;;;;;;;;0.67;0.33;;;;;28.83;38.14;100329.31;146626;634;46012;-70
2022/09/29 10:02:32;;;;;;;;;1.67;1.67;;;;;28.85;38.06;100332.78;146622;650;46012;-72
2022/09/29 10:06:03;;;;;;;;;2.00;2.00;;;;;28.77;37.63;100349.06;146625;665;46010;-73
2022/09/29 10:09:07;;;;;;;;;1.00;1.00;;;;;28.07;38.36;100222.16;146618;581;46916;-72
2022/09/29 10:12:03;;;;;;;;;0.00;0.00;;;;;28.81;37.69;100331.16;146622;625;46021;-71
2022/09/29 10:15:26;;;;;;;;;1.00;0.00;;;;;28.72;37.98;100321.63;146623;595;46012;-71
2022/09/29 10:18:30;;;;;;;;;2.67;1.00;;;;;28.71;37.66;100323.41;146624;590;46021;-71
2022/09/29 10:21:43;;;;;;;;;1.33;1.33;;;;;28.90;38.59;100317.53;146618;567;46017;-73
2022/09/29 10:24:40;;;;;;;;;1.00;1.00;;;;;29.15;37.80;100326.53;146623;563;46020;-70
2022/09/29 10:27:45;;;;;;;;;2.00;2.00;;;;;29.36;37.15;100330.31;146620;570;46017;-74
2022/09/29 10:30:44;;;;;;;;;1.00;1.00;;;;;29.58;37.25;100330.50;146624;564;46020;-72
2022/09/29 10:33:40;;;;;;;;;1.00;0.00;;;;;29.78;36.41;100320.94;146621;580;46013;-71
2022/09/29 10:36:51;;;;;;;;;1.33;1.00;;;;;29.86;36.25;100316.22;146626;607;46010;-74
2022/09/29 10:40:40;;;;;;;;;0.33;0.00;;;;;29.85;36.18;100311.81;146615;598;48917;-72
2022/09/29 10:43:46;;;;;;;;;0.67;0.67;;;;;29.89;35.57;100310.78;146625;656;46010;-72
2022/09/29 10:47:10;;;;;;;;;2.00;1.00;;;;;29.92;35.56;100316.88;146620;578;46919;-74
2022/09/29 10:50:32;;;;;;;;;0.00;0.00;;;;;30.00;34.01;100315.72;146623;676;46021;-71
2022/09/29 10:54:05;;;;;;;;;0.00;0.00;;;;;29.96;36.35;100293.56;146619;607;46016;-73
2022/09/29 10:57:31;;;;;;;;;1.00;1.00;;;;;30.11;35.26;100297.50;146625;570;46020;-72
2022/09/29 11:00:43;;;;;;;;;1.00;1.00;;;;;30.39;35.37;100297.41;146620;609;46014;-72
2022/09/29 11:04:11;;;;;;;;;0.00;0.00;;;;;30.49;33.92;100300.59;146622;627;46021;-72
2022/09/29 11:07:21;;;;;;;;;0.00;0.00;;;;;30.49;34.83;100276.50;146619;594;46016;-73
2022/09/29 11:10:40;;;;;;;;;1.00;1.00;;;;;30.48;34.32;100272.09;146625;629;46021;-72
2022/09/29 11:13:42;;;;;;;;;0.00;0.00;;;;;30.40;35.07;100276.88;146620;735;46016;-73
2022/09/29 11:16:58;;;;;;;;;0.00;0.00;;;;;30.46;36.30;100287.34;146621;634;46020;-74
2022/09/29 11:19:50;;;;;;;;;0.00;0.00;;;;;30.72;35.56;100283.69;146619;570;46017;-73
2022/09/29 11:23:13;;;;;;;;;0.00;0.00;;;;;31.03;34.93;100275.31;146625;586;46010;-73
2022/09/29 11:27:05;;;;;;;;;0.33;0.33;;;;;30.55;34.57;100161.22;146618;660;46013;-72
2022/09/29 11:30:50;;;;;;;;;0.00;0.00;;;;;30.13;34.00;100136.09;146619;611;46022;-71
2022/09/29 11:34:30;;;;;;;;;0.33;0.33;;;;;29.02;34.28;100017.38;146621;624;46016;-71
2022/09/29 11:37:49;;;;;;;;;1.33;0.00;;;;;30.27;35.28;100268.44;146624;648;46029;-72
2022/09/29 11:41:15;;;;;;;;;0.00;0.00;;;;;30.18;34.41;100276.75;146617;564;46016;-72
2022/09/29 11:44:34;;;;;;;;;2.00;1.00;;;;;30.16;35.61;100260.78;146625;582;46010;-70
2022/09/29 11:48:05;;;;;;;;;0.67;0.00;;;;;30.21;34.21;100266.84;146619;566;46016;-72
2022/09/29 11:51:43;;;;;;;;;1.33;0.67;;;;;30.19;35.23;100267.81;146623;563;46020;-71
2022/09/29 11:55:06;;;;;;;;;0.00;0.00;;;;;30.21;34.59;100261.50;146619;615;46916;-72
2022/09/29 11:58:40;;;;;;;;;0.67;0.00;;;;;30.23;35.05;100280.19;146620;663;46020;-73
2022/09/29 12:02:23;;;;;;;;;0.00;0.00;;;;;28.80;34.63;100012.75;146636;574;45016;-74
2022/09/29 12:05:56;;;;;;;;;0.00;0.00;;;;;28.95;34.58;100000.69;146632;625;46010;-73
2022/09/29 12:09:18;;;;;;;;;0.00;0.00;;;;;30.61;33.91;100255.50;146636;630;45916;-72
2022/09/29 12:12:33;;;;;;;;;1.00;0.00;;;;;30.72;32.77;100260.44;146636;593;45023;-75
2022/09/29 12:16:09;;;;;;;;;0.00;0.00;;;;;29.32;31.84;100002.03;146635;650;46012;-72
2022/09/29 12:19:24;;;;;;;;;0.00;0.00;;;;;30.75;32.43;100238.91;146637;574;45020;-72
2022/09/29 12:22:25;;;;;;;;;0.00;0.00;;;;;30.76;30.77;100243.34;146637;689;46012;-72
2022/09/29 12:25:25;;;;;;;;;0.00;0.00;;;;;30.77;31.22;100239.75;146637;576;45023;-73
2022/09/29 12:28:46;;;;;;;;;1.00;0.33;;;;;30.78;31.78;100237.94;146634;625;45012;-73
2022/09/29 12:32:00;;;;;;;;;;;;;;;;;;;;;
2022/09/29 12:35:22;;;;;;;;;1.00;1.00;;;;;28.83;30.34;99961.97;146638;581;45016;-73
2022/09/29 12:38:42;;;;;;;;;0.00;0.00;;;;;30.12;31.75;100230.59;146625;556;46914;-71
2022/09/29 12:41:46;;;;;;;;;1.00;0.00;;;;;29.90;32.78;100241.19;146630;563;46017;-72
2022/09/29 12:44:57;;;;;;;;;0.00;0.00;;;;;29.89;33.42;100238.59;146637;583;46010;-73
2022/09/29 12:48:24;;;;;;;;;0.00;0.00;;;;;30.11;33.57;100238.69;146635;689;45017;-73
2022/09/29 12:51:51;;;;;;;;;0.00;0.00;;;;;28.68;33.47;99944.69;146634;612;45020;-74
2022/09/29 12:55:09;;;;;;;;;3.00;1.00;;;;;28.82;31.64;99932.66;146634;595;46012;-72
2022/09/29 12:58:10;;;;;;;;;3.33;2.00;;;;;30.63;32.87;100226.03;146635;612;46020;-72
2022/09/29 13:01:27;;;;;;;;;1.00;1.00;;;;;30.77;32.49;100220.09;146630;660;46012;-72
2022/09/29 13:04:55;;;;;;;;;1.75;0.00;;;;;30.85;32.14;100220.72;146639;570;45020;-71
2022/09/29 13:08:27;;;;;;;;;1.00;0.00;;;;;30.87;32.74;100209.94;146636;613;46012;-71
2022/09/29 13:12:18;;;;;;;;;0.00;0.00;;;;;30.93;32.33;100228.41;146634;589;45010;-72
2022/09/29 13:15:41;;;;;;;;;0.00;0.00;;;;;30.92;32.36;100222.19;146631;607;45016;-72
2022/09/29 13:19:17;;;;;;;;;1.00;0.00;;;;;29.40;33.25;99963.41;146638;586;45011;-72
2022/09/29 13:22:46;;;;;;;;;0.00;0.00;;;;;30.88;33.18;100219.72;146635;596;45916;-72
2022/09/29 13:26:32;;;;;;;;;1.00;1.00;;;;;30.85;32.60;100225.22;146637;611;45021;-72
2022/09/29 13:29:28;;;;;;;;;0.00;0.00;;;;;30.77;33.29;100220.09;146630;566;45916;-71
2022/09/29 13:32:26;;;;;;;;;0.00;0.00;;;;;30.67;32.66;100218.75;146635;634;45020;-73
2022/09/29 13:35:41;;;;;;;;;0.00;0.00;;;;;30.58;33.38;100217.28;146632;597;46014;-73
2022/09/29 13:38:41;;;;;;;;;1.00;0.00;;;;;30.50;33.55;100214.94;146638;576;45021;-73
2022/09/29 13:41:57;;;;;;;;;0.00;0.00;;;;;30.52;33.42;100213.06;146633;569;45913;-71
2022/09/29 13:45:46;;;;;;;;;2.00;0.00;;;;;28.75;33.43;99908.87;146632;582;45020;-71
2022/09/29 13:48:50;;;;;;;;;2.00;1.00;;;;;30.50;33.92;100214.03;146635;599;45016;-77
2022/09/29 13:52:15;;;;;;;;;0.00;0.00;;;;;30.45;33.83;100218.72;146636;591;45020;-74
2022/09/29 13:55:51;;;;;;;;;0.00;0.00;;;;;30.44;33.93;100220.53;146626;587;46013;-75
2022/09/29 13:59:27;;;;;;;;;0.00;0.00;;;;;28.88;34.27;99957.34;146635;634;45020;-73
2022/09/29 14:03:21;;;;;;;;;1.00;1.00;;;;;29.38;33.45;100052.53;146616;599;47012;-71
2022/09/29 14:06:38;;;;;;;;;0.00;0.00;;;;;28.76;33.57;99941.78;146625;577;46020;-72
2022/09/29 14:09:49;;;;;;;;;3.00;1.33;;;;;30.32;33.62;100210.31;146621;619;47013;-74
2022/09/29 14:12:55;;;;;;;;;1.00;1.00;;;;;30.38;33.73;100208.25;146622;586;46020;-73
2022/09/29 14:16:40;;;;;;;;;1.00;1.00;;;;;30.33;34.40;100204.00;146618;604;46015;-74
2022/09/29 14:20:22;;;;;;;;;0.67;0.67;;;;;30.20;35.64;100210.78;146621;611;47010;-75
2022/09/29 14:23:18;;;;;;;;;3.00;2.00;;;;;29.87;36.31;100211.91;146618;640;46016;-72
2022/09/29 14:26:49;;;;;;;;;2.00;0.33;;;;;28.13;36.17;99945.69;146624;650;45030;-73
2022/09/29 14:30:37;;;;;;;;;2.00;1.33;;;;;27.96;36.28;99931.13;146620;660;46035;-74
2022/09/29 14:33:52;;;;;;;;;3.00;1.67;;;;;29.51;37.49;100208.75;146623;598;46020;-74
2022/09/29 14:36:54;;;;;;;;;3.00;2.00;;;;;29.46;37.23;100206.22;146621;580;46916;-74
2022/09/29 14:43:37;;;;;;;;;1.50;1.50;;;;;29.37;36.82;100219.91;146618;639;46016;-74
2022/09/29 14:54:24;;;;;;;;;4.33;1.33;;;;;29.26;37.60;100218.53;146623;632;46021;-75
2022/09/29 14:57:49;;;;;;;;;3.50;3.00;;;;;29.26;37.79;100213.19;146617;714;46016;-71
2022/09/29 15:01:33;;;;;;;;;4.33;3.33;;;;;27.64;37.63;99950.81;146622;566;46011;-75
2022/09/29 15:04:30;;;;;;;;;4.00;3.00;;;;;29.07;38.19;100212.94;146616;731;46016;-73
2022/09/29 15:07:32;;;;;;;;;3.00;3.00;;;;;29.02;38.54;100214.88;146621;699;46020;-73
2022/09/29 15:10:46;;;;;;;;;2.67;2.67;;;;;27.39;38.10;99945.34;146617;608;47014;-73
2022/09/29 15:13:41;;;;;;;;;3.00;3.00;;;;;28.96;38.43;100230.13;146621;583;46010;-76
2022/09/29 15:17:40;;;;;;;;;;;;;;;;;;;;;
2022/09/29 15:21:26;;;;;;;;;2.00;2.00;;;;;27.25;38.24;99958.19;146619;571;46022;-75
2022/09/29 15:25:02;;;;;;;;;5.00;2.00;;;;;28.77;38.47;100231.66;146618;622;47013;-74